Time;durP1;ratioP1;P1;durP2;ratioP2;P2;SDS_P1;SDS_P2;PMS_P1;PMS_P2;Temp;Humidity;BMP_temperature;BMP_pressure;BME280_temperature;BME280_humidity;BME280_pressure;Samples;Min_cycle;Max_cycle;Signal;HPM_P1;HPM_P2
2021/04/28 00:00:22;;;;;;;4.32;1.50;;;10.00;33.00;;;;;;2372230;53;20930;-64
2021/04/28 00:02:48;;;;;;;3.22;1.50;;;10.00;33.10;;;;;;2369846;53;20921;-66
2021/04/28 00:05:15;;;;;;;3.37;1.40;;;9.90;33.90;;;;;;2357103;53;21011;-66
2021/04/28 00:07:43;;;;;;;3.17;1.55;;;9.90;34.00;;;;;;2359773;53;20934;-64
2021/04/28 00:10:11;;;;;;;3.42;1.40;;;9.90;34.10;;;;;;2623316;52;21711;-66
2021/04/28 00:12:39;;;;;;;2.80;1.27;;;9.80;34.00;;;;;;2360880;53;20924;-65
2021/04/28 00:15:11;;;;;;;2.85;1.17;;;9.80;34.10;;;;;;2486595;52;20938;-64
2021/04/28 00:17:37;;;;;;;3.03;1.27;;;9.70;34.10;;;;;;2371433;54;20922;-63
2021/04/28 00:20:10;;;;;;;2.75;1.37;;;9.70;34.10;;;;;;2371437;53;20942;-63
2021/04/28 00:22:36;;;;;;;2.58;1.12;;;9.70;34.50;;;;;;2601899;52;20897;-65
2021/04/28 00:25:06;;;;;;;2.53;1.30;;;9.60;34.20;;;;;;2353401;53;20943;-64
2021/04/28 00:27:33;;;;;;;3.25;1.35;;;9.60;34.50;;;;;;2372728;53;20978;-63
2021/04/28 00:30:05;;;;;;;3.15;1.52;;;9.60;34.50;;;;;;2348592;53;20938;-65
2021/04/28 00:32:33;;;;;;;4.50;1.48;;;9.50;34.60;;;;;;2364977;54;20973;-65
2021/04/28 00:35:00;;;;;;;3.45;1.40;;;9.50;34.70;;;;;;2371385;54;20945;-64
2021/04/28 00:37:26;;;;;;;2.92;1.33;;;9.40;34.60;;;;;;2415584;52;21387;-64
2021/04/28 00:39:52;;;;;;;3.10;1.40;;;9.40;34.60;;;;;;2347563;54;20938;-65
2021/04/28 00:42:19;;;;;;;3.03;1.40;;;9.40;34.80;;;;;;2370701;54;20918;-64
2021/04/28 00:44:46;;;;;;;2.97;1.35;;;9.30;34.80;;;;;;2463522;52;20990;-64
2021/04/28 00:47:12;;;;;;;4.10;1.62;;;9.30;35.00;;;;;;2590111;52;20892;-63
2021/04/28 00:49:38;;;;;;;3.05;1.33;;;9.30;35.10;;;;;;2365970;53;20910;-66
2021/04/28 00:52:05;;;;;;;3.67;1.40;;;9.30;35.20;;;;;;2370938;54;20986;-65
2021/04/28 00:54:32;;;;;;;2.85;1.25;;;9.20;35.20;;;;;;2370408;53;20985;-63
2021/04/28 00:56:59;;;;;;;3.30;1.48;;;9.20;35.20;;;;;;2624299;52;20942;-64
2021/04/28 00:59:26;;;;;;;2.90;1.52;;;9.20;35.30;;;;;;2373870;53;20929;-64
2021/04/28 01:01:53;;;;;;;3.45;1.42;;;9.10;35.30;;;;;;2371616;54;20914;-64
2021/04/28 01:04:20;;;;;;;2.90;1.23;;;9.10;35.30;;;;;;2622984;52;20885;-65
2021/04/28 01:06:47;;;;;;;3.35;1.62;;;9.10;35.40;;;;;;2370924;53;20938;-64
2021/04/28 01:09:13;;;;;;;4.32;1.45;;;9.10;35.60;;;;;;2371375;53;20926;-65
2021/04/28 01:11:40;;;;;;;4.47;1.40;;;9.00;35.60;;;;;;2623719;52;20946;-64
2021/04/28 01:14:07;;;;;;;3.15;1.40;;;9.00;35.60;;;;;;2370929;54;20922;-65
2021/04/28 01:16:33;;;;;;;3.12;1.30;;;9.00;35.60;;;;;;2434068;52;20940;-65
2021/04/28 01:19:01;;;;;;;3.08;1.30;;;8.90;35.50;;;;;;2371250;54;21041;-64
2021/04/28 01:21:28;;;;;;;3.03;1.45;;;8.90;35.60;;;;;;2369969;53;20922;-65
2021/04/28 01:23:54;;;;;;;2.17;1.08;;;8.90;35.60;;;;;;2371012;54;21712;-64
2021/04/28 01:26:23;;;;;;;3.22;1.30;;;8.90;35.70;;;;;;2364067;53;20985;-65
2021/04/28 01:28:50;;;;;;;2.60;1.37;;;8.90;35.90;;;;;;2364838;53;20934;-65
2021/04/28 01:31:16;;;;;;;2.80;1.35;;;8.80;35.80;;;;;;2371179;53;20933;-63
2021/04/28 01:33:44;;;;;;;2.87;1.23;;;8.80;36.00;;;;;;2371162;53;20930;-64
2021/04/28 01:36:53;;;;;;;3.97;1.50;;;8.70;35.90;;;;;;2371536;53;21497;-64
2021/04/28 01:39:20;;;;;;;3.75;1.60;;;8.70;36.60;;;;;;2372320;54;20973;-63
2021/04/28 01:41:47;;;;;;;3.92;1.73;;;8.70;36.00;;;;;;2371131;54;20962;-63
2021/04/28 01:44:26;;;;;;;3.80;1.52;;;8.60;36.10;;;;;;2371798;53;20954;-65
2021/04/28 01:46:53;;;;;;;3.25;1.70;;;8.60;36.60;;;;;;2371377;53;21724;-63
2021/04/28 01:49:20;;;;;;;3.45;1.55;;;8.60;36.30;;;;;;2620441;52;20930;-65
2021/04/28 01:51:47;;;;;;;3.95;1.42;;;8.60;36.30;;;;;;2350893;53;20937;-64
2021/04/28 01:54:15;;;;;;;3.33;1.58;;;8.50;36.30;;;;;;2371209;54;21017;-64
2021/04/28 01:56:43;;;;;;;3.15;1.45;;;8.50;36.40;;;;;;2375310;53;20910;-65
2021/04/28 01:59:09;;;;;;;3.42;1.60;;;8.50;36.50;;;;;;2370492;53;20937;-65
2021/04/28 02:01:36;;;;;;;3.28;1.45;;;8.50;36.60;;;;;;2357774;53;20992;-64
2021/04/28 02:04:03;;;;;;;3.58;1.23;;;8.40;36.60;;;;;;2339074;54;20937;-64
2021/04/28 02:06:29;;;;;;;3.00;1.40;;;8.40;36.60;;;;;;2358774;53;20962;-64
2021/04/28 02:08:55;;;;;;;3.12;1.70;;;8.40;36.60;;;;;;2371197;54;20950;-65
2021/04/28 02:11:22;;;;;;;3.97;1.52;;;8.30;36.60;;;;;;2370635;54;21367;-63
2021/04/28 02:13:48;;;;;;;3.10;1.35;;;8.30;36.90;;;;;;2369735;54;20926;-65
2021/04/28 02:16:15;;;;;;;3.37;1.50;;;8.30;36.90;;;;;;2371705;53;20918;-65
2021/04/28 02:18:41;;;;;;;2.62;1.20;;;8.20;36.80;;;;;;2350413;53;21032;-64
2021/04/28 02:21:08;;;;;;;3.55;1.73;;;8.20;36.80;;;;;;2370867;53;20930;-64
2021/04/28 02:23:39;;;;;;;4.15;1.52;;;8.20;37.00;;;;;;2357717;53;20913;-64
2021/04/28 02:26:06;;;;;;;3.03;1.30;;;8.20;37.10;;;;;;2346625;55;20981;-64
2021/04/28 02:28:32;;;;;;;3.87;1.65;;;8.10;37.10;;;;;;2533834;52;21708;-63
2021/04/28 02:30:59;;;;;;;3.25;1.60;;;8.10;37.20;;;;;;2370514;54;21033;-63
2021/04/28 02:33:25;;;;;;;3.22;1.50;;;8.10;37.30;;;;;;2370878;53;20954;-64
2021/04/28 02:35:55;;;;;;;3.30;1.42;;;8.10;37.40;;;;;;2371318;54;20942;-65
2021/04/28 02:39:11;;;;;;;3.50;1.37;;;8.10;37.50;;;;;;2371479;53;20962;-64
2021/04/28 02:41:44;;;;;;;3.00;1.50;;;8.10;37.60;;;;;;2327831;54;20993;-66
2021/04/28 02:44:11;;;;;;;4.15;1.50;;;8.10;37.70;;;;;;2444962;53;20941;-65
2021/04/28 02:46:37;;;;;;;2.90;1.50;;;8.10;37.60;;;;;;2339103;54;21869;-63
2021/04/28 02:49:04;;;;;;;3.83;1.90;;;8.00;37.60;;;;;;2349251;54;20931;-65
2021/04/28 02:51:30;;;;;;;3.95;1.77;;;8.00;37.50;;;;;;2348819;54;20930;-63
2021/04/28 02:53:57;;;;;;;4.15;1.67;;;7.90;37.50;;;;;;2342821;54;20971;-64
2021/04/28 02:56:23;;;;;;;6.18;1.67;;;7.90;37.70;;;;;;2342966;54;20939;-64
2021/04/28 02:58:50;;;;;;;3.87;1.58;;;7.90;37.70;;;;;;2343305;53;21020;-62
2021/04/28 03:01:17;;;;;;;3.33;1.77;;;7.90;37.80;;;;;;2342701;54;20962;-64
2021/04/28 03:03:43;;;;;;;3.50;1.80;;;7.90;37.80;;;;;;2346169;53;20969;-65
2021/04/28 03:06:10;;;;;;;3.65;1.60;;;7.90;37.80;;;;;;2339997;53;20947;-65
2021/04/28 03:08:37;;;;;;;3.25;1.60;;;7.80;37.80;;;;;;2344412;53;21013;-65
2021/04/28 03:11:04;;;;;;;5.62;2.03;;;7.80;37.80;;;;;;2342274;54;21500;-64
2021/04/28 03:13:30;;;;;;;3.42;1.60;;;7.80;37.80;;;;;;2587322;53;20883;-63
2021/04/28 03:15:57;;;;;;;4.05;1.70;;;7.70;37.80;;;;;;2347832;54;21468;-64
2021/04/28 03:18:23;;;;;;;3.58;1.67;;;7.70;37.80;;;;;;2329849;54;21696;-65
2021/04/28 03:20:49;;;;;;;4.45;2.08;;;7.70;37.90;;;;;;2355371;53;21001;-64
2021/04/28 03:23:15;;;;;;;3.80;1.65;;;7.60;37.80;;;;;;2321711;54;20986;-63
2021/04/28 03:25:42;;;;;;;4.18;1.85;;;7.60;37.90;;;;;;2364578;53;21384;-63
2021/04/28 03:28:09;;;;;;;3.75;1.75;;;7.60;38.00;;;;;;2401786;52;20933;-64
2021/04/28 03:30:36;;;;;;;3.83;2.00;;;7.60;38.10;;;;;;2320519;54;20945;-63
2021/04/28 03:33:08;;;;;;;4.12;1.85;;;7.60;38.20;;;;;;2349293;53;20951;-63
2021/04/28 03:35:37;;;;;;;4.20;2.28;;;7.50;38.50;;;;;;2366149;54;21031;-65
2021/04/28 03:38:04;;;;;;;4.30;2.10;;;7.50;38.40;;;;;;2366031;54;20900;-65
2021/04/28 03:40:30;;;;;;;3.35;1.55;;;7.50;38.50;;;;;;2366269;53;20952;-65
2021/04/28 03:42:57;;;;;;;4.05;1.70;;;7.40;38.40;;;;;;2365835;53;20947;-63
2021/04/28 03:45:23;;;;;;;3.08;1.60;;;7.40;38.40;;;;;;2365472;54;20955;-65
2021/04/28 03:47:49;;;;;;;4.07;1.85;;;7.40;38.40;;;;;;2366219;53;20923;-64
2021/04/28 03:50:16;;;;;;;4.15;1.87;;;7.40;38.50;;;;;;2355368;53;20951;-64
2021/04/28 03:52:44;;;;;;;3.60;1.95;;;7.40;38.60;;;;;;2357668;53;20982;-63
2021/04/28 03:55:11;;;;;;;4.37;1.80;;;7.30;38.50;;;;;;2365881;54;20943;-64
2021/04/28 03:57:39;;;;;;;3.85;2.00;;;7.30;38.60;;;;;;2366052;54;20948;-64
2021/04/28 04:00:07;;;;;;;4.45;2.08;;;7.30;38.60;;;;;;2366140;53;20943;-65
2021/04/28 04:02:33;;;;;;;4.62;2.05;;;7.30;38.70;;;;;;2527979;52;21865;-65
2021/04/28 04:05:03;;;;;;;3.83;1.92;;;7.30;38.70;;;;;;2365660;53;21821;-64
2021/04/28 04:07:34;;;;;;;5.50;2.37;;;7.30;38.90;;;;;;2349191;53;20920;-63
2021/04/28 04:10:00;;;;;;;4.20;2.20;;;7.20;38.90;;;;;;2363936;53;20971;-65
2021/04/28 04:12:28;;;;;;;5.75;2.28;;;7.20;38.90;;;;;;2589152;52;21091;-63
2021/04/28 04:14:54;;;;;;;5.50;2.50;;;7.20;38.90;;;;;;2371029;53;21022;-64
2021/04/28 04:17:20;;;;;;;5.05;2.30;;;7.20;38.90;;;;;;2352730;53;21486;-64
2021/04/28 04:19:48;;;;;;;4.20;2.17;;;7.20;39.00;;;;;;2356599;53;20929;-64
2021/04/28 04:22:14;;;;;;;4.20;2.20;;;7.10;38.90;;;;;;2354575;53;20943;-64
2021/04/28 04:24:43;;;;;;;4.07;1.90;;;7.10;39.00;;;;;;2486367;52;21047;-64
2021/04/28 04:27:09;;;;;;;4.35;2.30;;;7.10;39.10;;;;;;2365165;54;21858;-64
2021/04/28 04:29:35;;;;;;;7.03;2.10;;;7.10;39.00;;;;;;2451647;53;20967;-65
2021/04/28 04:32:02;;;;;;;4.80;2.20;;;7.10;39.20;;;;;;2600151;52;20999;-64
2021/04/28 04:34:28;;;;;;;3.15;1.90;;;7.10;39.20;;;;;;2366178;53;20935;-66
2021/04/28 04:36:55;;;;;;;5.12;2.80;;;7.10;39.40;;;;;;2594741;52;21503;-65
2021/04/28 04:39:21;;;;;;;3.45;1.75;;;7.10;39.50;;;;;;2612362;52;21006;-63
2021/04/28 04:41:48;;;;;;;4.10;2.05;;;7.00;39.50;;;;;;2365850;53;20915;-65
2021/04/28 04:44:15;;;;;;;4.18;2.33;;;7.00;39.50;;;;;;2366158;53;21466;-65
2021/04/28 04:46:42;;;;;;;3.92;1.90;;;7.00;39.60;;;;;;2346353;54;21023;-64
2021/04/28 04:49:09;;;;;;;4.45;2.10;;;7.00;39.70;;;;;;2366151;53;20908;-65
2021/04/28 04:51:37;;;;;;;3.72;2.10;;;7.00;40.40;;;;;;2366371;54;21023;-63
2021/04/28 04:54:04;;;;;;;4.20;2.20;;;7.00;39.80;;;;;;2432070;52;21010;-64
2021/04/28 04:56:31;;;;;;;5.20;2.47;;;7.00;39.90;;;;;;2366482;54;21393;-63
2021/04/28 04:58:57;;;;;;;5.70;2.35;;;7.10;40.00;;;;;;2366315;54;20944;-65
2021/04/28 05:01:23;;;;;;;3.85;2.03;;;7.10;40.10;;;;;;2618138;52;20920;-64
2021/04/28 05:03:50;;;;;;;5.72;2.10;;;7.10;40.10;;;;;;2351943;53;20906;-64
2021/04/28 05:06:16;;;;;;;4.32;1.87;;;7.10;40.20;;;;;;2364914;54;21797;-63
2021/04/28 05:08:42;;;;;;;4.65;1.87;;;7.10;40.20;;;;;;2367192;53;20927;-63
2021/04/28 05:11:09;;;;;;;4.05;1.83;;;7.10;40.30;;;;;;2605636;52;21063;-64
2021/04/28 05:13:35;;;;;;;3.70;1.98;;;7.20;40.50;;;;;;2359176;53;21006;-64
2021/04/28 05:16:01;;;;;;;4.00;2.20;;;7.20;40.50;;;;;;2346050;53;21460;-64
2021/04/28 05:18:28;;;;;;;3.55;1.95;;;7.20;40.50;;;;;;2367302;53;20940;-63
2021/04/28 05:20:55;;;;;;;3.62;2.00;;;7.20;40.60;;;;;;2366259;53;21805;-63
2021/04/28 05:23:21;;;;;;;3.72;1.95;;;7.30;40.70;;;;;;2617131;52;20924;-65
2021/04/28 05:25:47;;;;;;;4.72;2.30;;;7.30;40.70;;;;;;2618040;52;20944;-64
2021/04/28 05:28:13;;;;;;;4.47;2.12;;;7.30;40.80;;;;;;2366552;54;21789;-64
2021/04/28 05:30:40;;;;;;;3.83;1.77;;;7.40;40.90;;;;;;2373094;52;20968;-65
2021/04/28 05:33:07;;;;;;;6.55;2.58;;;7.40;40.90;;;;;;2346078;53;20983;-63
2021/04/28 05:35:34;;;;;;;5.10;2.28;;;7.40;41.00;;;;;;2356097;53;20922;-64
2021/04/28 05:38:01;;;;;;;4.70;2.40;;;7.50;41.20;;;;;;2485468;52;20995;-65
2021/04/28 05:40:27;;;;;;;5.45;2.10;;;7.50;41.20;;;;;;2366629;53;21432;-63
2021/04/28 05:42:54;;;;;;;4.25;1.95;;;7.60;41.30;;;;;;2533276;52;21820;-63
2021/04/28 05:45:20;;;;;;;4.25;2.05;;;7.70;41.50;;;;;;2366636;54;20931;-65
2021/04/28 05:47:47;;;;;;;4.25;2.40;;;7.80;41.60;;;;;;2342020;53;20948;-64
2021/04/28 05:50:14;;;;;;;3.85;2.05;;;7.80;41.70;;;;;;2343289;54;20927;-63
2021/04/28 05:52:41;;;;;;;4.53;2.20;;;7.90;41.80;;;;;;2343092;54;20988;-65
2021/04/28 05:55:07;;;;;;;4.28;2.30;;;8.00;41.80;;;;;;2343321;53;20956;-65
2021/04/28 05:57:34;;;;;;;4.30;2.12;;;8.10;41.90;;;;;;2352209;53;20952;-64
2021/04/28 06:00:02;;;;;;;3.87;1.87;;;8.10;42.00;;;;;;2353043;53;20926;-63
2021/04/28 06:02:28;;;;;;;4.28;2.42;;;8.20;42.10;;;;;;2343006;53;20897;-65
2021/04/28 06:04:55;;;;;;;4.43;2.20;;;8.30;42.10;;;;;;2342835;53;21025;-63
2021/04/28 06:07:24;;;;;;;5.47;2.50;;;8.40;42.20;;;;;;2343049;54;20970;-64
2021/04/28 06:09:50;;;;;;;7.35;2.85;;;8.50;42.40;;;;;;2343851;53;20919;-65
2021/04/28 06:12:16;;;;;;;8.13;2.12;;;8.70;42.50;;;;;;2343322;53;20883;-65
2021/04/28 06:14:43;;;;;;;6.03;2.83;;;8.80;42.50;;;;;;2345951;53;21012;-65
2021/04/28 06:17:11;;;;;;;4.75;2.55;;;8.90;42.70;;;;;;2354335;53;21418;-65
2021/04/28 06:19:37;;;;;;;5.68;2.80;;;9.00;42.80;;;;;;2368641;53;21794;-65
2021/04/28 06:22:04;;;;;;;4.78;2.58;;;9.10;42.80;;;;;;2366408;53;20977;-64
2021/04/28 06:24:33;;;;;;;5.05;2.90;;;9.30;43.00;;;;;;2340420;53;20961;-64
2021/04/28 06:26:59;;;;;;;4.60;2.40;;;9.40;43.10;;;;;;2358571;53;21380;-64
2021/04/28 06:29:26;;;;;;;4.47;2.22;;;9.50;43.10;;;;;;2347139;53;20992;-65
2021/04/28 06:31:52;;;;;;;4.35;2.55;;;9.70;43.10;;;;;;2550144;52;20935;-64
2021/04/28 06:34:18;;;;;;;4.37;2.47;;;9.80;43.10;;;;;;2405895;52;21724;-65
2021/04/28 06:37:02;;;;;;;4.50;2.22;;;10.00;42.30;;;;;;2357268;53;21052;-64
2021/04/28 06:39:31;;;;;;;5.22;2.22;;;10.10;42.60;;;;;;2352197;53;21434;-63
2021/04/28 06:41:58;;;;;;;5.55;2.65;;;10.30;42.20;;;;;;2367847;53;20979;-63
2021/04/28 06:44:24;;;;;;;6.45;2.58;;;10.40;42.30;;;;;;2364747;53;20956;-64
2021/04/28 06:46:50;;;;;;;4.70;2.50;;;10.60;42.40;;;;;;2615606;52;20948;-65
2021/04/28 06:49:16;;;;;;;4.93;2.60;;;10.80;42.40;;;;;;2366418;54;21535;-65
2021/04/28 06:51:43;;;;;;;4.55;2.28;;;11.00;42.40;;;;;;2366306;53;20944;-65
2021/04/28 06:54:09;;;;;;;4.82;2.47;;;11.10;42.40;;;;;;2618576;52;20971;-66
2021/04/28 06:56:35;;;;;;;4.78;2.62;;;11.30;42.70;;;;;;2366167;53;21441;-64
2021/04/28 06:59:03;;;;;;;5.97;2.55;;;11.60;43.60;;;;;;2367173;54;20947;-65
2021/04/28 07:01:29;;;;;;;5.15;2.92;;;12.00;44.70;;;;;;2366687;54;21411;-66
2021/04/28 07:03:55;;;;;;;5.35;2.70;;;12.50;45.40;;;;;;2366388;54;21066;-65
2021/04/28 07:06:22;;;;;;;6.75;3.60;;;13.00;46.10;;;;;;2365719;53;20976;-65
2021/04/28 07:08:49;;;;;;;6.32;3.12;;;13.60;46.80;;;;;;2365869;52;21709;-65
2021/04/28 07:11:15;;;;;;;5.55;3.05;;;14.20;47.20;;;;;;2617727;52;20940;-66
2021/04/28 07:13:41;;;;;;;4.97;2.78;;;14.80;47.40;;;;;;2366168;54;20999;-65
2021/04/28 07:16:07;;;;;;;5.25;3.20;;;15.50;47.80;;;;;;2367013;54;20979;-64
2021/04/28 07:18:34;;;;;;;5.70;2.87;;;16.20;47.70;;;;;;2414131;52;20971;-66
2021/04/28 07:21:00;;;;;;;6.22;3.72;;;16.80;47.10;;;;;;2366566;54;20959;-66
2021/04/28 07:23:27;;;;;;;8.40;3.15;;;17.40;46.40;;;;;;2366237;53;20935;-68
2021/04/28 07:25:53;;;;;;;5.95;3.20;;;18.00;46.00;;;;;;2366609;53;21035;-67
2021/04/28 07:28:19;;;;;;;9.55;3.30;;;18.50;45.40;;;;;;2366583;54;21096;-66
2021/04/28 07:30:46;;;;;;;7.53;3.65;;;19.00;45.00;;;;;;2349453;53;21008;-66
2021/04/28 07:33:12;;;;;;;8.68;3.72;;;19.50;44.40;;;;;;2363747;54;20991;-66
2021/04/28 07:35:38;;;;;;;8.18;3.40;;;20.00;44.20;;;;;;2355104;53;21026;-67
2021/04/28 07:38:05;;;;;;;6.07;2.85;;;20.50;44.20;;;;;;2350274;53;20944;-66
2021/04/28 07:40:34;;;;;;;4.50;2.87;;;21.00;43.80;;;;;;2355387;53;20964;-66
2021/04/28 07:43:01;;;;;;;7.03;3.30;;;21.50;43.30;;;;;;2366564;54;20975;-69
2021/04/28 07:45:28;;;;;;;6.35;3.30;;;22.00;42.90;;;;;;2589843;52;20921;-66
2021/04/28 07:47:54;;;;;;;9.07;3.08;;;22.40;41.90;;;;;;2315565;53;1751082;-67
2021/04/28 07:50:20;;;;;;;4.45;2.70;;;22.70;40.70;;;;;;2356360;53;20935;-66
2021/04/28 07:52:50;;;;;;;5.32;2.58;;;22.90;39.50;;;;;;2618022;52;20927;-66
2021/04/28 07:55:16;;;;;;;4.80;2.83;;;23.10;38.60;;;;;;2360949;53;21477;-66
2021/04/28 07:57:43;;;;;;;6.12;3.45;;;23.10;37.40;;;;;;2351536;53;20935;-66
2021/04/28 08:00:10;;;;;;;5.00;3.22;;;23.00;36.80;;;;;;2366437;54;20963;-67
2021/04/28 08:02:36;;;;;;;6.68;3.17;;;23.00;35.70;;;;;;2611077;52;21000;-69
2021/04/28 08:05:03;;;;;;;5.15;2.85;;;22.80;35.30;;;;;;2349350;53;20951;-67
2021/04/28 08:07:29;;;;;;;6.47;3.30;;;22.70;34.90;;;;;;2616999;52;20936;-69
2021/04/28 08:09:57;;;;;;;5.65;3.05;;;22.60;34.80;;;;;;2340567;54;20979;-68
2021/04/28 08:12:24;;;;;;;4.85;2.75;;;22.40;34.50;;;;;;2343186;54;20947;-66
2021/04/28 08:14:50;;;;;;;5.53;2.72;;;22.30;34.50;;;;;;2342537;54;20975;-67
2021/04/28 08:17:16;;;;;;;6.22;2.87;;;22.20;34.50;;;;;;2326402;53;21016;-66
2021/04/28 08:19:43;;;;;;;5.93;3.30;;;22.10;34.60;;;;;;2607332;52;21341;-67
2021/04/28 08:22:11;;;;;;;6.70;4.00;;;22.10;34.90;;;;;;2334836;53;21854;-65
2021/04/28 08:24:37;;;;;;;6.10;3.45;;;22.10;35.00;;;;;;2350408;53;21007;-67
2021/04/28 08:27:04;;;;;;;7.60;4.10;;;22.20;35.60;;;;;;2370921;54;20897;-66
2021/04/28 08:29:30;;;;;;;7.07;3.03;;;22.40;36.20;;;;;;2342872;55;21368;-66
2021/04/28 08:31:57;;;;;;;5.45;3.33;;;22.60;36.60;;;;;;2347027;53;20985;-69
2021/04/28 08:34:23;;;;;;;5.75;3.67;;;22.80;36.50;;;;;;2351237;53;20916;-67
2021/04/28 08:36:49;;;;;;;7.22;3.40;;;23.00;36.20;;;;;;2343757;53;20951;-69
2021/04/28 08:39:16;;;;;;;5.32;3.47;;;23.30;36.10;;;;;;2343692;53;21910;-69
2021/04/28 08:41:46;;;;;;;5.12;2.80;;;23.50;35.70;;;;;;2324085;54;21467;-66
2021/04/28 08:44:13;;;;;;;5.25;2.95;;;23.60;35.30;;;;;;2346959;54;20920;-67
2021/04/28 08:46:39;;;;;;;5.05;3.20;;;23.70;35.10;;;;;;2444568;53;20941;-67
2021/04/28 08:49:06;;;;;;;6.43;3.45;;;23.80;34.80;;;;;;2343665;54;20978;-66
2021/04/28 08:51:32;;;;;;;6.37;3.12;;;23.90;34.50;;;;;;2564902;53;20947;-69
2021/04/28 08:53:58;;;;;;;7.10;3.92;;;23.90;34.30;;;;;;2335172;53;21004;-69
2021/04/28 08:56:24;;;;;;;6.50;3.60;;;23.90;33.50;;;;;;2336752;53;21043;-67
2021/04/28 08:58:51;;;;;;;7.95;4.37;;;23.90;33.50;;;;;;2332665;54;21068;-70
2021/04/28 09:01:27;;;;;;;6.07;3.87;;;23.90;33.40;;;;;;2435705;53;20945;-70
2021/04/28 09:03:54;;;;;;;6.40;4.22;;;23.90;33.10;;;;;;2309247;53;21055;-66
2021/04/28 09:06:53;;;;;;;7.03;3.97;;;23.90;33.70;;;;;;2332735;53;20990;-66
2021/04/28 09:09:20;;;;;;;7.75;3.78;;;24.20;33.20;;;;;;2364334;54;20911;-66
2021/04/28 09:11:53;;;;;;;5.75;3.50;;;24.20;34.00;;;;;;2365999;53;20939;-67
2021/04/28 09:14:21;;;;;;;7.30;4.57;;;24.40;33.80;;;;;;2356538;53;20928;-69
2021/04/28 09:17:50;;;;;;;6.90;3.90;;;24.60;33.90;;;;;;2605937;52;21364;-69
2021/04/28 09:20:20;;;;;;;5.82;3.62;;;25.00;33.20;;;;;;2617950;52;21547;-66
2021/04/28 09:22:50;;;;;;;6.93;4.45;;;25.10;33.60;;;;;;2616254;52;20920;-69
2021/04/28 09:25:36;;;;;;;6.53;4.32;;;25.40;33.10;;;;;;2366430;53;20940;-68
2021/04/28 09:28:43;;;;;;;6.62;4.12;;;25.60;31.80;;;;;;2366578;54;20979;-67
2021/04/28 09:31:32;;;;;;;7.37;4.32;;;25.60;31.30;;;;;;2323236;54;20955;-67
2021/04/28 09:34:00;;;;;;;6.70;3.92;;;25.60;30.80;;;;;;2367865;53;20926;-68
2021/04/28 09:36:37;;;;;;;6.80;4.32;;;25.50;31.00;;;;;;2343523;55;20919;-66
2021/04/28 09:39:08;;;;;;;8.45;5.07;;;25.50;30.80;;;;;;2448969;53;20978;-66
2021/04/28 09:41:44;;;;;;;7.20;4.35;;;25.50;30.80;;;;;;2345692;54;20941;-68
2021/04/28 09:44:50;;;;;;;7.18;4.45;;;25.50;30.90;;;;;;2333280;53;21512;-69
2021/04/28 09:47:20;;;;;;;8.82;4.55;;;25.60;30.60;;;;;;2349501;53;21765;-67
2021/04/28 09:49:59;;;;;;;7.60;4.65;;;25.60;31.20;;;;;;2566564;53;20937;-68
2021/04/28 09:52:59;;;;;;;7.32;4.30;;;25.70;30.90;;;;;;2357354;54;21030;-68
2021/04/28 09:55:26;;;;;;;10.48;4.87;;;25.70;30.90;;;;;;2360646;54;20977;-68
2021/04/28 09:57:52;;;;;;;6.57;4.30;;;25.80;31.30;;;;;;2617185;52;20993;-67
2021/04/28 10:00:28;;;;;;;7.55;4.32;;;25.80;31.20;;;;;;2357161;54;20991;-69
2021/04/28 10:03:12;;;;;;;6.60;4.45;;;25.90;31.20;;;;;;2325179;54;21520;-67
2021/04/28 10:05:41;;;;;;;8.07;5.50;;;26.10;30.90;;;;;;2323345;54;20957;-66
2021/04/28 10:08:26;;;;;;;9.52;5.70;;;26.20;30.70;;;;;;2330121;53;20993;-66
2021/04/28 10:10:52;;;;;;;8.30;4.95;;;26.50;30.00;;;;;;2337307;53;20940;-67
2021/04/28 10:13:19;;;;;;;8.25;4.25;;;26.60;30.40;;;;;;2341515;53;21021;-67
2021/04/28 10:15:45;;;;;;;8.82;4.40;;;26.70;30.30;;;;;;2343188;53;20953;-68
2021/04/28 10:18:13;;;;;;;6.60;4.43;;;26.80;30.20;;;;;;2332824;53;21498;-69
2021/04/28 10:20:41;;;;;;;8.32;4.68;;;26.90;30.00;;;;;;2351547;53;21092;-66
2021/04/28 10:23:08;;;;;;;8.90;5.05;;;27.00;29.80;;;;;;2344669;54;20942;-67
2021/04/28 10:25:35;;;;;;;7.18;4.57;;;27.10;29.50;;;;;;2364017;54;20922;-67
2021/04/28 10:28:02;;;;;;;9.00;5.05;;;27.20;29.50;;;;;;2342848;54;20957;-70
2021/04/28 10:30:28;;;;;;;8.25;5.25;;;27.20;29.40;;;;;;2365511;54;21872;-67
2021/04/28 10:32:55;;;;;;;7.35;5.22;;;27.30;28.90;;;;;;2346919;54;20895;-67
2021/04/28 10:35:22;;;;;;;7.55;4.40;;;27.40;28.40;;;;;;2350720;54;20914;-68
2021/04/28 10:37:50;;;;;;;10.10;5.43;;;27.50;28.00;;;;;;2339342;54;20950;-68
2021/04/28 10:40:30;;;;;;;6.20;4.07;;;27.60;27.80;;;;;;2366373;54;20961;-69
2021/04/28 10:43:11;;;;;;;7.53;4.65;;;27.70;27.90;;;;;;2587391;52;20989;-66
2021/04/28 10:45:38;;;;;;;7.85;4.10;;;27.90;27.80;;;;;;2616648;52;20925;-67
2021/04/28 10:48:39;;;;;;;7.70;4.53;;;28.00;28.30;;;;;;2343164;54;21017;-69
2021/04/28 10:51:05;;;;;;;7.40;4.75;;;28.20;28.00;;;;;;2357127;53;21048;-68
2021/04/28 10:53:34;;;;;;;10.55;6.72;;;28.40;27.90;;;;;;2615410;52;20989;-68
2021/04/28 10:56:15;;;;;;;7.40;5.05;;;28.50;26.60;;;;;;2365099;54;21872;-68
2021/04/28 10:58:45;;;;;;;9.80;5.18;;;28.60;26.50;;;;;;2354876;54;21000;-70
2021/04/28 11:01:13;;;;;;;6.18;4.00;;;28.60;26.70;;;;;;2352512;53;20957;-67
2021/04/28 11:03:55;;;;;;;6.20;4.12;;;28.60;26.90;;;;;;2345103;53;21036;-70
2021/04/28 11:06:31;;;;;;;6.78;4.03;;;28.60;26.30;;;;;;2612624;52;20938;-67
2021/04/28 11:09:08;;;;;;;5.85;3.95;;;28.70;26.40;;;;;;2364545;54;20925;-69
2021/04/28 11:11:40;;;;;;;8.77;4.70;;;28.70;26.60;;;;;;2365269;54;21069;-69
2021/04/28 11:14:30;;;;;;;6.72;4.20;;;28.70;26.40;;;;;;2365520;54;20927;-68
2021/04/28 11:18:43;;;;;;;5.95;4.10;;;28.70;26.50;;;;;;2353016;54;21025;-66
2021/04/28 11:26:59;;;;;;;9.93;4.43;;;28.80;26.40;;;;;;2476230;52;20941;-68
2021/04/28 11:29:27;;;;;;;5.43;2.70;;;28.90;26.30;;;;;;2346244;54;21025;-67
2021/04/28 11:31:55;;;;;;;4.62;2.70;;;28.90;26.60;;;;;;2359204;54;20926;-66
2021/04/28 11:34:39;;;;;;;4.37;2.70;;;29.10;26.60;;;;;;2390995;52;21005;-69
2021/04/28 11:37:09;;;;;;;4.18;2.42;;;29.20;25.40;;;;;;2364084;54;20985;-69
2021/04/28 11:39:43;;;;;;;5.03;2.30;;;29.30;25.40;;;;;;2343499;54;20964;-66
2021/04/28 11:42:14;;;;;;;3.62;2.12;;;29.40;25.20;;;;;;2363863;54;21022;-67
2021/04/28 11:44:51;;;;;;;4.12;2.00;;;29.50;24.70;;;;;;2364744;54;20974;-68
2021/04/28 11:47:25;;;;;;;5.20;1.80;;;29.50;24.60;;;;;;2606446;52;20969;-68
2021/04/28 11:49:55;;;;;;;4.07;2.20;;;29.50;24.90;;;;;;2348538;54;21011;-66
2021/04/28 11:52:23;;;;;;;4.40;1.70;;;29.60;24.30;;;;;;2330752;54;20998;-67
2021/04/28 11:55:01;;;;;;;5.12;2.25;;;29.60;24.50;;;;;;2364592;54;20993;-69
2021/04/28 11:57:30;;;;;;;3.75;1.60;;;29.70;23.90;;;;;;2365332;53;20914;-67
2021/04/28 12:00:07;;;;;;;4.18;1.80;;;29.70;24.00;;;;;;2363205;54;21491;-69
2021/04/28 12:02:33;;;;;;;4.62;1.55;;;29.70;23.60;;;;;;2612928;52;20973;-68
2021/04/28 12:04:59;;;;;;;4.22;2.25;;;29.70;23.90;;;;;;2341922;54;20933;-68
2021/04/28 12:07:27;;;;;;;3.97;2.28;;;29.70;23.40;;;;;;2352802;53;20998;-67
2021/04/28 12:09:54;;;;;;;4.25;2.55;;;29.70;22.60;;;;;;2617087;52;20981;-69
2021/04/28 12:12:27;;;;;;;4.32;2.37;;;29.60;22.60;;;;;;2365591;54;21372;-68
2021/04/28 12:15:55;;;;;;;3.65;1.87;;;29.50;21.70;;;;;;2583827;52;20946;-68
2021/04/28 12:18:31;;;;;;;5.75;2.00;;;29.40;22.10;;;;;;2363256;54;20906;-67
2021/04/28 12:21:11;;;;;;;2.95;1.48;;;29.30;22.60;;;;;;2368014;54;20954;-69
2021/04/28 12:23:37;;;;;;;3.40;1.60;;;29.30;23.00;;;;;;2360362;54;21474;-67
2021/04/28 12:26:07;;;;;;;3.20;1.70;;;29.30;23.20;;;;;;2346758;54;21784;-69
2021/04/28 12:28:49;;;;;;;3.42;1.52;;;29.40;22.60;;;;;;2351580;54;21365;-68
2021/04/28 12:31:15;;;;;;;3.83;1.80;;;29.40;22.50;;;;;;2354790;54;21564;-68
2021/04/28 12:33:42;;;;;;;5.07;2.10;;;29.40;22.10;;;;;;2591144;52;20954;-68
2021/04/28 12:36:08;;;;;;;4.87;1.85;;;29.30;22.10;;;;;;2367970;53;20949;-68
2021/04/28 12:38:38;;;;;;;4.03;1.83;;;29.30;22.50;;;;;;2362701;53;20937;-68
2021/04/28 12:41:07;;;;;;;3.58;1.85;;;29.30;23.00;;;;;;2362255;54;21136;-67
2021/04/28 12:43:39;;;;;;;4.32;2.10;;;29.20;22.60;;;;;;2346687;54;21443;-70
2021/04/28 12:46:09;;;;;;;5.18;1.98;;;29.20;22.50;;;;;;2461457;52;20945;-68
2021/04/28 12:49:05;;;;;;;4.20;2.03;;;29.20;22.50;;;;;;2359289;54;20981;-68
2021/04/28 12:51:32;;;;;;;4.80;2.03;;;29.10;22.10;;;;;;2368142;53;20962;-69
2021/04/28 12:54:00;;;;;;;4.40;2.05;;;29.10;22.40;;;;;;2365202;54;20941;-73
2021/04/28 12:56:45;;;;;;;4.30;1.83;;;29.00;22.50;;;;;;2341794;54;20954;-70
2021/04/28 12:59:21;;;;;;;3.97;1.98;;;29.00;22.10;;;;;;2402915;52;20969;-69
2021/04/28 13:02:01;;;;;;;4.07;1.50;;;28.90;22.10;;;;;;2348175;54;20949;-69
2021/04/28 13:04:27;;;;;;;3.35;1.75;;;28.90;22.60;;;;;;2346889;54;20962;-69
2021/04/28 13:07:14;;;;;;;6.57;2.00;;;28.80;22.40;;;;;;2353608;54;21825;-68
2021/04/28 13:09:44;;;;;;;6.10;1.62;;;28.70;21.90;;;;;;2365355;54;21010;-70
2021/04/28 13:12:41;;;;;;;4.62;2.40;;;28.60;22.10;;;;;;2365431;54;20985;-68